Terminal Aerodrome Forecast
Issued by NWS

Home | Current Version | Previous Version | Text Only | Print | Product List | Glossary On
Versions: 1 2 3 4 5 6 7 8 9 10 11 12 13 14 15 16 17 18 19 20 21 22
000
FTUS44 KSJT 271000 AAB
TAFSOA
TAF AMD
KSOA 271023Z 2710/2806 12004KT P6SM SCT040
      TEMPO 2710/2712 BKN015
     FM271800 18011KT P6SM SCT030=

USA.gov is the U.S. government's official web portal to all federal, state and local government web resources and services.